METAR Reports From Nearby Airports

 

KLUD - Decatur, Texas, USA
Distance from Wildwood: ESE 5mi, 8km
Updated: Aug 08, 2022 10:35pm
Clear
Clear
 Wind from SSE
Wind: SSE 7 mph , 11 km/h
Temperature: 91°F , 33°C
Dew Point: 61°F , 16°C
Humidity: 36%
Barometer: 30.01 inHg , 1016.3 hPa
Clouds: Clear
Visibility: 7 miles , 11 km
2022/08/09 03:35 KLUD 090335Z AUTO 16006KT 7SM CLR 33/16 A3001 RMK AO2 T03300155
KXBP - Bridgeport, Texas, USA
Distance from Wildwood: WSW 11mi, 18km
Updated: Aug 08, 2022 10:35pm
Clear
Clear
 Wind from SSE
Wind: SSE 5 mph , 7 km/h
Temperature: 88°F , 31°C
Dew Point: 59°F , 15°C
Humidity: 38%
Barometer: 30.02 inHg , 1016.6 hPa
Clouds: Clear
Visibility: 10 miles , 16 km
2022/08/09 03:35 KXBP 090335Z AUTO 16004KT 10SM CLR 31/15 A3002 RMK AO2 T03130150
 
K0F2 - Bowie, Texas, USA
Distance from Wildwood: NNW 24mi, 39km
Updated: Aug 08, 2022 10:35pm
Partly Cloudy
Partly Cloudy
 Wind from calm
Wind: Calm
Temperature: 88°F , 31°C
Heat Index: 90°F , 32°C
Dew Point: 64°F , 18°C
Humidity: 46%
Barometer: 30.02 inHg , 1016.6 hPa
Clouds: Partly Cloudy
Visibility: 10 miles , 16 km
Cloud details: Partly Cloudy 12000 ft
2022/08/09 03:35 K0F2 090335Z AUTO 00000KT 10SM SCT120 31/18 A3002 RMK AO2 T03050178
KDTO - Denton, Texas, USA
Distance from Wildwood: E 27mi, 44km
Updated: Aug 08, 2022 9:53pm
Clear
Clear
 Wind from SE
Wind: SE 7 mph , 11 km/h
Temperature: 91°F , 33°C
Dew Point: 63°F , 17°C
Humidity: 38%
Barometer: 29.98 inHg , 1015.2 hPa
Clouds: Clear
Visibility: 10 miles , 16 km
2022/08/09 02:53 KDTO 090253Z AUTO 14006KT 10SM CLR 33/17 A2998 RMK AO2 SLP140 T03330172 53019
 
KAFW - Ft Worth/Allianc, Texas, USA
Distance from Wildwood: SE 29mi, 46km
Updated: Aug 08, 2022 9:53pm
Partly Cloudy
Partly Cloudy
 Wind from SSE
Wind: SSE 8 mph , 13 km/h
Temperature: 95°F , 35°C
Dew Point: 63°F , 17°C
Humidity: 34%
Barometer: 29.97 inHg , 1014.9 hPa
Clouds: Partly Cloudy
Visibility: 10 miles , 16 km
Cloud details: Partly Cloudy 30000 ft
2022/08/09 02:53 KAFW 090253Z 15007KT 10SM SCT300 35/17 A2997 RMK AO2 SLP127 T03500167 53019
KFTW - Fort Worth, Texas, USA
Distance from Wildwood: SSE 34mi, 55km
Updated: Aug 08, 2022 9:53pm
Clear
Clear
 Wind from SSE
Wind: SSE 9 mph , 15 km/h
Temperature: 93°F , 34°C
Dew Point: 61°F , 16°C
Humidity: 34%
Barometer: 29.97 inHg , 1014.9 hPa
Clouds: Clear
Visibility: 10 miles , 16 km
2022/08/09 02:53 KFTW 090253Z 15008KT 10SM CLR 34/16 A2997 RMK AO2 SLP137 T03440161 53021
 
KNFW - Fort Worth Nas, Texas, USA
Distance from Wildwood: SSE 36mi, 58km
Updated: Aug 08, 2022 9:52pm
Partly Cloudy
Partly Cloudy
 Wind from SSE
Wind: SSE 9 mph , 15 km/h
Temperature: 95°F , 35°C
Dew Point: 64°F , 18°C
Humidity: 36%
Barometer: 29.98 inHg , 1015.2 hPa
Clouds: Partly Cloudy
Visibility: 10 miles , 16 km
Cloud details: Partly Cloudy 25000 ft
2022/08/09 02:52 KNFW 090252Z 16008KT 10SM SCT250 35/18 A2998 RMK SLP135 T03520179 53021
KGLE - Gainesville, Texas, USA
Distance from Wildwood: NE 38mi, 61km
Updated: Aug 08, 2022 10:35pm
Clear
Clear
 Wind from ESE
Wind: ESE 5 mph , 7 km/h
Temperature: 88°F , 31°C
Heat Index: 88°F , 31°C
Dew Point: 61°F , 16°C
Humidity: 40%
Barometer: 30.02 inHg , 1016.6 hPa
Clouds: Clear
Visibility: 10 miles , 16 km
2022/08/09 03:35 KGLE 090335Z AUTO 12004KT 10SM CLR 31/16 A3002 RMK AO2 T03070160
 
KMWL - Mineral Wells, Texas, USA
Distance from Wildwood: SW 41mi, 65km
Updated: Aug 08, 2022 9:53pm
Clear
Clear
 Wind from SSE
Wind: SSE 9 mph , 15 km/h
Temperature: 91°F , 33°C
Dew Point: 59°F , 15°C
Humidity: 34%
Barometer: 29.98 inHg , 1015.2 hPa
Clouds: Clear
Visibility: 10 miles , 16 km
2022/08/09 02:53 KMWL 090253Z AUTO 15008KT 10SM CLR 33/15 A2998 RMK AO2 SLP133 T03330150 53021
KDFW - Dallas/Ft Worth, Texas, USA
Distance from Wildwood: ESE 45mi, 73km
Updated: Aug 08, 2022 9:53pm
Partly Cloudy
Partly Cloudy
 Wind from SE
Wind: SE 8 mph , 13 km/h
Temperature: 93°F , 34°C
Dew Point: 61°F , 16°C
Humidity: 34%
Barometer: 29.97 inHg , 1014.9 hPa
Clouds: Partly Cloudy
Visibility: 10 miles , 16 km
Cloud details: Few Clouds 9000 ft
Partly Cloudy 25000 ft
2022/08/09 02:53 KDFW 090253Z 14007KT 10SM FEW090 SCT250 34/16 A2997 RMK AO2 SLP137 OCNL LTGIC DSNT NE CB DSNT NE MOV S T03390161 53020